Time;durP1;ratioP1;P1;durP2;ratioP2;P2;SDS_P1;SDS_P2;PMS_P1;PMS_P2;Temp;Humidity;BMP_temperature;BMP_pressure;BME280_temperature;BME280_humidity;BME280_pressure;Samples;Min_cycle;Max_cycle;Signal;HPM_P1;HPM_P2
2023/06/19 00:00:56;;;;;;;9.95;8.02;;;23.50;76.40;;;;;;5032082;28;20040;-65
2023/06/19 00:03:22;;;;;;;8.60;7.57;;;23.50;76.30;;;;;;5031797;28;20034;-65
2023/06/19 00:05:47;;;;;;;9.38;7.95;;;23.50;76.20;;;;;;5032338;28;20095;-65
2023/06/19 00:08:13;;;;;;;9.38;7.28;;;23.50;76.10;;;;;;5014360;28;20044;-65
2023/06/19 00:10:38;;;;;;;9.00;7.88;;;23.50;75.60;;;;;;5032048;28;20057;-65
2023/06/19 00:13:04;;;;;;;9.10;7.75;;;23.60;75.40;;;;;;5032142;28;20042;-64
2023/06/19 00:15:29;;;;;;;8.95;7.90;;;23.50;74.90;;;;;;5031491;28;20044;-65
2023/06/19 00:17:56;;;;;;;9.95;7.53;;;23.50;74.70;;;;;;5032177;28;20034;-65
2023/06/19 00:20:23;;;;;;;8.80;7.78;;;23.50;74.50;;;;;;5014542;28;20041;-65
2023/06/19 00:22:51;;;;;;;8.27;7.38;;;23.60;74.20;;;;;;5031965;28;20037;-65
2023/06/19 00:25:18;;;;;;;8.18;7.00;;;23.60;74.20;;;;;;5031018;28;20451;-65
2023/06/19 00:27:43;;;;;;;9.68;7.40;;;23.60;73.80;;;;;;5031864;28;20409;-65
2023/06/19 00:30:09;;;;;;;9.88;7.57;;;23.60;73.60;;;;;;5032037;28;20033;-64
2023/06/19 00:32:46;;;;;;;8.52;7.65;;;23.60;73.30;;;;;;5031577;28;20442;-65
2023/06/19 00:35:13;;;;;;;8.90;7.05;;;23.60;73.10;;;;;;5031415;28;20038;-65
2023/06/19 00:37:38;;;;;;;8.00;7.10;;;23.60;73.10;;;;;;5013697;28;20125;-65
2023/06/19 00:40:08;;;;;;;8.45;7.55;;;23.60;73.20;;;;;;5031765;28;20121;-65
2023/06/19 00:42:33;;;;;;;8.75;6.72;;;23.60;73.20;;;;;;5032020;28;20047;-65
2023/06/19 00:44:59;;;;;;;10.55;7.57;;;23.60;73.10;;;;;;5013646;28;20124;-65
2023/06/19 00:47:25;;;;;;;10.60;7.45;;;23.60;73.20;;;;;;5031722;28;20041;-65
2023/06/19 00:49:51;;;;;;;9.93;7.10;;;23.50;73.20;;;;;;5031658;28;20041;-64
2023/06/19 00:52:17;;;;;;;10.80;7.68;;;23.60;73.20;;;;;;5031499;28;20120;-64
2023/06/19 00:54:43;;;;;;;8.23;6.88;;;23.50;73.20;;;;;;5031551;28;20164;-64
2023/06/19 00:57:09;;;;;;;10.30;7.57;;;23.60;73.30;;;;;;5031609;28;20591;-64
2023/06/19 00:59:36;;;;;;;11.88;7.28;;;23.60;73.20;;;;;;5031759;28;20117;-65
2023/06/19 01:02:01;;;;;;;7.68;6.78;;;23.60;73.20;;;;;;5031682;28;20038;-65
2023/06/19 01:04:27;;;;;;;8.73;7.68;;;23.50;73.20;;;;;;5031015;28;20045;-65
2023/06/19 01:07:11;;;;;;;8.60;7.13;;;23.50;73.30;;;;;;5031629;28;20091;-64
2023/06/19 01:09:46;;;;;;;9.95;7.50;;;23.50;73.40;;;;;;5031737;28;20048;-65
2023/06/19 01:12:18;;;;;;;12.43;7.40;;;23.50;73.60;;;;;;5031689;28;20038;-64
2023/06/19 01:15:00;;;;;;;11.02;7.85;;;23.50;73.80;;;;;;5030784;28;20038;-64
2023/06/19 01:17:29;;;;;;;8.95;7.50;;;23.40;74.00;;;;;;5031464;28;20045;-65
2023/06/19 01:19:56;;;;;;;9.13;7.38;;;23.40;74.20;;;;;;5013757;28;20052;-65
2023/06/19 01:22:32;;;;;;;10.73;7.38;;;23.40;74.50;;;;;;5031409;28;20423;-65
2023/06/19 01:24:58;;;;;;;8.60;7.70;;;23.30;75.50;;;;;;5030672;28;20498;-64
2023/06/19 01:27:25;;;;;;;8.93;7.43;;;23.30;75.20;;;;;;5015308;28;20041;-65
2023/06/19 01:29:53;;;;;;;8.80;7.55;;;23.30;75.30;;;;;;5017380;28;20537;-64
2023/06/19 01:32:34;;;;;;;9.10;7.55;;;23.20;75.50;;;;;;5034735;28;20491;-64
2023/06/19 01:35:01;;;;;;;9.55;8.02;;;23.20;75.90;;;;;;5017241;28;20041;-65
2023/06/19 01:37:28;;;;;;;9.63;7.40;;;23.10;76.20;;;;;;5035391;28;20038;-65
2023/06/19 01:39:58;;;;;;;8.27;7.25;;;23.10;76.40;;;;;;5017438;28;20057;-64
2023/06/19 01:42:25;;;;;;;10.43;7.27;;;23.10;76.50;;;;;;5034836;28;20049;-64
2023/06/19 01:44:51;;;;;;;10.30;8.05;;;23.10;76.70;;;;;;5034509;28;20287;-65
2023/06/19 01:47:19;;;;;;;10.18;7.90;;;23.10;77.00;;;;;;5017245;28;20399;-64
2023/06/19 01:49:46;;;;;;;9.45;8.05;;;23.10;77.20;;;;;;5034814;28;20112;-65
2023/06/19 01:52:13;;;;;;;8.90;7.53;;;23.00;77.40;;;;;;5034748;28;20033;-64
2023/06/19 01:54:38;;;;;;;9.00;8.10;;;23.00;77.60;;;;;;5016368;28;20049;-64
2023/06/19 01:57:05;;;;;;;10.07;8.07;;;23.00;77.90;;;;;;5034862;28;20029;-65
2023/06/19 01:59:30;;;;;;;9.15;7.85;;;23.00;78.30;;;;;;5017136;28;20044;-64
2023/06/19 02:01:56;;;;;;;8.73;7.80;;;22.90;78.60;;;;;;5013712;28;20045;-64
2023/06/19 02:04:22;;;;;;;9.80;8.00;;;22.90;78.90;;;;;;5007975;28;20072;-64
2023/06/19 02:06:47;;;;;;;9.73;7.82;;;22.80;79.20;;;;;;5033413;28;20069;-64
2023/06/19 02:09:13;;;;;;;10.00;7.70;;;22.80;79.50;;;;;;5033889;28;20107;-64
2023/06/19 02:11:38;;;;;;;10.88;8.15;;;22.80;79.80;;;;;;5016279;28;20395;-64
2023/06/19 02:14:04;;;;;;;10.82;8.50;;;22.80;80.20;;;;;;5034188;28;20075;-64
2023/06/19 02:16:30;;;;;;;8.90;7.63;;;22.80;81.20;;;;;;5034290;28;20045;-64
2023/06/19 02:18:56;;;;;;;9.10;7.78;;;22.70;80.60;;;;;;5033967;28;20116;-64
2023/06/19 02:21:22;;;;;;;9.25;8.25;;;22.70;81.00;;;;;;5034025;28;20048;-64
2023/06/19 02:23:48;;;;;;;8.88;7.95;;;22.70;81.00;;;;;;5033336;28;20407;-64
2023/06/19 02:26:13;;;;;;;10.23;8.20;;;22.70;81.40;;;;;;5034193;28;20065;-64
2023/06/19 02:28:39;;;;;;;10.75;7.60;;;22.70;81.50;;;;;;5034056;28;20118;-64
2023/06/19 02:31:04;;;;;;;9.18;7.97;;;22.70;81.70;;;;;;5033944;28;20033;-64
2023/06/19 02:33:30;;;;;;;8.65;7.70;;;22.60;81.90;;;;;;5033621;28;20056;-64
2023/06/19 02:35:58;;;;;;;9.38;7.32;;;22.60;82.10;;;;;;5034322;28;20069;-64
2023/06/19 02:38:25;;;;;;;9.25;8.23;;;22.60;82.30;;;;;;5033373;28;20049;-64
2023/06/19 02:40:51;;;;;;;8.50;7.60;;;22.60;82.60;;;;;;5034093;28;20104;-64
2023/06/19 02:43:16;;;;;;;9.80;7.93;;;22.60;82.90;;;;;;5033750;28;20072;-64
2023/06/19 02:45:42;;;;;;;10.00;8.38;;;22.50;83.00;;;;;;5033736;28;20046;-64
2023/06/19 02:48:07;;;;;;;11.23;8.35;;;22.50;83.30;;;;;;5033681;28;20037;-64
2023/06/19 02:50:34;;;;;;;8.90;8.00;;;22.50;83.60;;;;;;5033576;28;20530;-64
2023/06/19 02:52:59;;;;;;;12.02;8.43;;;22.50;84.20;;;;;;5033353;28;20557;-64
2023/06/19 02:55:25;;;;;;;8.77;7.35;;;22.50;84.50;;;;;;5033361;28;20026;-64
2023/06/19 02:57:51;;;;;;;10.27;7.53;;;22.50;84.70;;;;;;5033695;28;20487;-64
2023/06/19 03:00:17;;;;;;;8.52;7.63;;;22.50;85.00;;;;;;5033506;28;20037;-64
2023/06/19 03:02:44;;;;;;;10.70;7.88;;;22.50;85.30;;;;;;5033446;28;20047;-64
2023/06/19 03:05:10;;;;;;;9.20;7.20;;;22.50;85.70;;;;;;5032936;28;20049;-64
2023/06/19 03:07:36;;;;;;;10.13;7.70;;;22.50;86.00;;;;;;5015407;28;20048;-64
2023/06/19 03:10:02;;;;;;;9.48;7.30;;;22.50;86.30;;;;;;5033576;28;20034;-64
2023/06/19 03:12:28;;;;;;;12.45;8.02;;;22.50;86.70;;;;;;5033411;28;20438;-64
2023/06/19 03:14:53;;;;;;;8.52;7.13;;;22.50;87.00;;;;;;5033023;28;20556;-64
2023/06/19 03:17:19;;;;;;;9.02;7.22;;;22.50;87.30;;;;;;5033100;28;20041;-64
2023/06/19 03:19:44;;;;;;;10.32;7.18;;;22.50;87.50;;;;;;5033155;28;20038;-64
2023/06/19 03:22:10;;;;;;;10.35;7.45;;;22.50;87.80;;;;;;5032815;28;20488;-64
2023/06/19 03:24:35;;;;;;;9.57;7.25;;;22.50;88.10;;;;;;5014869;28;20134;-64
2023/06/19 03:27:01;;;;;;;9.45;7.53;;;22.50;88.30;;;;;;5032897;28;20045;-64
2023/06/19 03:29:26;;;;;;;8.30;7.43;;;22.50;88.50;;;;;;5033065;28;20041;-64
2023/06/19 03:31:52;;;;;;;9.70;7.20;;;22.50;88.90;;;;;;5032993;28;20038;-64
2023/06/19 03:34:17;;;;;;;11.75;7.65;;;22.50;89.20;;;;;;5031981;28;20124;-64
2023/06/19 03:36:43;;;;;;;8.27;6.95;;;22.40;89.50;;;;;;5032570;28;20084;-64
2023/06/19 03:39:09;;;;;;;8.45;7.45;;;22.40;89.90;;;;;;5032380;28;20533;-64
2023/06/19 03:41:34;;;;;;;9.07;7.22;;;22.40;90.10;;;;;;5032460;28;20049;-64
2023/06/19 03:44:00;;;;;;;8.18;6.85;;;22.30;90.60;;;;;;5032160;28;20470;-64
2023/06/19 03:46:25;;;;;;;9.45;6.97;;;22.30;90.40;;;;;;5032663;28;20052;-64
2023/06/19 03:48:51;;;;;;;8.20;6.55;;;22.40;90.60;;;;;;5031855;28;20045;-64
2023/06/19 03:51:16;;;;;;;9.88;6.55;;;22.30;90.70;;;;;;5032370;28;20030;-64
2023/06/19 03:53:42;;;;;;;14.40;6.97;;;22.30;90.90;;;;;;5032375;28;20061;-64
2023/06/19 03:56:08;;;;;;;7.63;6.05;;;22.30;91.10;;;;;;5032548;28;20030;-64
2023/06/19 03:58:33;;;;;;;7.20;6.18;;;22.30;91.20;;;;;;5031594;28;20494;-64
2023/06/19 04:00:59;;;;;;;7.05;6.20;;;22.30;91.30;;;;;;5013263;28;20072;-64
2023/06/19 04:03:24;;;;;;;10.00;6.43;;;22.30;91.50;;;;;;5031229;28;20087;-64
2023/06/19 04:05:50;;;;;;;6.82;6.13;;;22.20;91.60;;;;;;5059575;22;20174;-66
2023/06/19 04:08:16;;;;;;;7.47;6.10;;;22.20;91.70;;;;;;5047281;28;20040;-66
2023/06/19 04:10:41;;;;;;;11.65;5.82;;;22.20;91.90;;;;;;5047919;28;20479;-66
2023/06/19 04:13:07;;;;;;;7.22;5.38;;;22.20;92.00;;;;;;5052099;28;20556;-66
2023/06/19 04:15:34;;;;;;;7.63;5.70;;;22.20;92.10;;;;;;5049980;28;20033;-66
2023/06/19 04:18:00;;;;;;;6.40;5.20;;;22.20;92.20;;;;;;5051737;28;20048;-66
2023/06/19 04:20:27;;;;;;;5.63;5.00;;;22.10;92.30;;;;;;5052073;28;20045;-66
2023/06/19 04:22:52;;;;;;;7.30;5.30;;;22.10;92.50;;;;;;5051788;28;20598;-66
2023/06/19 04:25:18;;;;;;;7.65;4.70;;;22.10;92.70;;;;;;5051370;28;20037;-66
2023/06/19 04:27:47;;;;;;;7.50;4.82;;;22.10;92.90;;;;;;5042703;28;20144;-66
2023/06/19 04:30:13;;;;;;;7.80;4.63;;;22.00;93.10;;;;;;5032133;28;20033;-65
2023/06/19 04:32:41;;;;;;;6.00;3.92;;;22.00;93.30;;;;;;5031118;28;20091;-66
2023/06/19 04:35:08;;;;;;;4.68;3.38;;;22.00;93.60;;;;;;5031611;28;20116;-65
2023/06/19 04:37:34;;;;;;;6.00;3.90;;;21.90;93.90;;;;;;5031700;28;20045;-66
2023/06/19 04:39:59;;;;;;;7.93;3.83;;;21.90;94.10;;;;;;5031665;28;20049;-65
2023/06/19 04:42:26;;;;;;;4.93;3.33;;;21.90;94.50;;;;;;5031934;28;20052;-66
2023/06/19 04:44:52;;;;;;;6.95;3.60;;;21.90;94.70;;;;;;5031311;28;20041;-66
2023/06/19 04:47:21;;;;;;;4.32;3.65;;;21.80;94.90;;;;;;5031639;28;20419;-65
2023/06/19 04:49:47;;;;;;;4.50;3.30;;;21.90;95.10;;;;;;5029904;28;20509;-65
2023/06/19 04:52:13;;;;;;;5.22;3.70;;;21.80;95.40;;;;;;5031958;28;20037;-65
2023/06/19 04:54:38;;;;;;;4.22;3.45;;;21.90;95.50;;;;;;5031152;28;20069;-65
2023/06/19 04:57:04;;;;;;;4.55;3.47;;;21.90;95.70;;;;;;5031752;28;20091;-65
2023/06/19 04:59:30;;;;;;;5.45;3.33;;;22.00;95.90;;;;;;5031824;28;20045;-66
2023/06/19 05:01:57;;;;;;;4.55;3.65;;;22.00;96.10;;;;;;5035644;28;20663;-65
2023/06/19 05:04:23;;;;;;;4.97;3.58;;;22.00;96.30;;;;;;5035057;28;20034;-65
2023/06/19 05:06:51;;;;;;;5.45;3.80;;;21.90;96.40;;;;;;5035479;28;20041;-65
2023/06/19 05:09:17;;;;;;;6.40;3.78;;;21.90;96.70;;;;;;5034178;28;20399;-65
2023/06/19 05:11:43;;;;;;;4.75;3.70;;;21.80;97.30;;;;;;5035702;28;20033;-65
2023/06/19 05:14:08;;;;;;;5.35;3.75;;;21.70;97.60;;;;;;5035257;28;20408;-65
2023/06/19 05:16:34;;;;;;;6.95;3.80;;;21.70;97.90;;;;;;5035277;28;20037;-65
2023/06/19 05:19:00;;;;;;;5.20;4.32;;;21.60;98.40;;;;;;5035215;28;20049;-65
2023/06/19 05:21:26;;;;;;;6.60;3.50;;;21.50;98.70;;;;;;5035269;28;20167;-65
2023/06/19 05:23:52;;;;;;;7.25;4.07;;;21.50;99.00;;;;;;5035145;28;20450;-65
2023/06/19 05:26:18;;;;;;;6.00;3.88;;;21.50;99.50;;;;;;5035182;28;20488;-65
2023/06/19 05:28:44;;;;;;;4.93;3.78;;;21.50;99.80;;;;;;5033879;28;20124;-65
2023/06/19 05:31:10;;;;;;;5.20;3.90;;;21.60;99.90;;;;;;5035061;28;20075;-65
2023/06/19 05:33:35;;;;;;;4.35;3.42;;;21.80;99.90;;;;;;5033475;28;20124;-65
2023/06/19 05:36:01;;;;;;;4.95;4.07;;;22.00;99.90;;;;;;5034947;28;20099;-65
2023/06/19 05:38:28;;;;;;;5.10;3.92;;;22.20;99.80;;;;;;5034013;28;20045;-65
2023/06/19 05:40:53;;;;;;;4.97;3.50;;;22.30;99.70;;;;;;5035160;28;20042;-65
2023/06/19 05:43:19;;;;;;;6.40;3.70;;;22.40;99.60;;;;;;5034754;28;20106;-65
2023/06/19 05:45:45;;;;;;;4.88;3.88;;;22.50;99.60;;;;;;5034844;28;20045;-65
2023/06/19 05:48:10;;;;;;;4.97;3.78;;;22.60;99.60;;;;;;5034526;28;20041;-65
2023/06/19 05:50:36;;;;;;;5.43;3.80;;;22.60;99.70;;;;;;5035052;28;20041;-65
2023/06/19 05:53:01;;;;;;;5.05;3.70;;;22.50;99.80;;;;;;5034675;28;20060;-65
2023/06/19 05:55:27;;;;;;;5.00;4.18;;;22.50;99.90;;;;;;5034441;28;20037;-65
2023/06/19 05:57:53;;;;;;;3.85;3.42;;;22.50;99.90;;;;;;5034691;28;20187;-64
2023/06/19 06:00:20;;;;;;;4.78;3.60;;;22.50;99.90;;;;;;5034654;28;20117;-65
2023/06/19 06:02:45;;;;;;;4.47;3.70;;;22.60;99.90;;;;;;5034507;28;20223;-64
2023/06/19 06:05:11;;;;;;;4.25;3.65;;;22.60;99.90;;;;;;5034253;28;20124;-65
2023/06/19 06:07:37;;;;;;;5.55;3.95;;;22.60;99.90;;;;;;5034507;28;20041;-65
2023/06/19 06:10:03;;;;;;;5.93;4.50;;;22.50;99.90;;;;;;5033105;28;20125;-65
2023/06/19 06:12:29;;;;;;;4.72;4.18;;;22.40;99.90;;;;;;5033755;28;20040;-65
2023/06/19 06:14:54;;;;;;;4.80;3.80;;;22.40;99.90;;;;;;5034055;28;20431;-65
2023/06/19 06:17:20;;;;;;;5.72;4.40;;;22.40;99.90;;;;;;5034073;28;20119;-65
2023/06/19 06:19:45;;;;;;;5.18;4.05;;;22.40;99.90;;;;;;5033798;28;20069;-65
2023/06/19 06:22:11;;;;;;;5.85;4.22;;;22.30;99.90;;;;;;5034286;28;20104;-65
2023/06/19 06:24:36;;;;;;;5.47;3.88;;;22.30;99.90;;;;;;5033737;28;20033;-65
2023/06/19 06:27:02;;;;;;;7.25;4.00;;;22.30;99.90;;;;;;5032646;28;20038;-65
2023/06/19 06:29:28;;;;;;;4.38;3.65;;;22.30;99.90;;;;;;5032009;28;20038;-64
2023/06/19 06:32:11;;;;;;;5.78;4.15;;;22.30;99.90;;;;;;5033923;28;20033;-65
2023/06/19 06:34:36;;;;;;;6.15;4.47;;;22.30;99.90;;;;;;5033830;28;20091;-65
2023/06/19 06:37:02;;;;;;;6.47;4.40;;;22.30;99.90;;;;;;5032730;28;20033;-65
2023/06/19 06:39:28;;;;;;;6.40;4.68;;;22.40;99.90;;;;;;5032673;28;20080;-65
2023/06/19 06:41:53;;;;;;;5.55;4.40;;;22.40;99.90;;;;;;5034042;28;20099;-65
2023/06/19 06:44:19;;;;;;;6.20;4.95;;;22.50;99.90;;;;;;5033378;28;20113;-65
2023/06/19 06:46:45;;;;;;;4.82;4.28;;;22.50;99.90;;;;;;5033769;28;20495;-65
2023/06/19 06:49:11;;;;;;;7.30;4.82;;;22.60;99.90;;;;;;5033561;28;20052;-65
2023/06/19 06:51:36;;;;;;;6.80;4.65;;;22.50;99.90;;;;;;5033898;28;20169;-65
2023/06/19 06:54:02;;;;;;;7.38;5.35;;;22.50;99.90;;;;;;5033394;28;20120;-65
2023/06/19 06:56:28;;;;;;;5.82;5.18;;;22.50;99.90;;;;;;5033686;28;20085;-64
2023/06/19 06:58:53;;;;;;;8.90;5.55;;;22.40;99.90;;;;;;5033311;28;20040;-64
2023/06/19 07:01:19;;;;;;;8.35;5.70;;;22.40;99.90;;;;;;5033609;28;20155;-65
2023/06/19 07:03:44;;;;;;;9.57;6.03;;;22.40;99.90;;;;;;5033367;28;20052;-65
2023/06/19 07:06:10;;;;;;;7.18;5.03;;;22.30;99.90;;;;;;5033225;28;20049;-65
2023/06/19 07:08:35;;;;;;;6.75;5.47;;;22.30;99.90;;;;;;5031882;28;20050;-65
2023/06/19 07:11:01;;;;;;;6.40;5.35;;;22.20;99.90;;;;;;5033406;28;20034;-65
2023/06/19 07:13:27;;;;;;;7.60;5.75;;;22.20;99.90;;;;;;5031608;28;20044;-65
2023/06/19 07:15:52;;;;;;;8.65;5.55;;;22.20;99.90;;;;;;5031975;28;20590;-65
2023/06/19 07:18:18;;;;;;;7.28;5.35;;;22.10;99.90;;;;;;5032968;28;20419;-65
2023/06/19 07:20:43;;;;;;;6.15;5.22;;;22.10;99.90;;;;;;5033034;28;20044;-65
2023/06/19 07:23:10;;;;;;;6.60;5.30;;;22.10;99.90;;;;;;5032590;28;20049;-65
2023/06/19 07:25:36;;;;;;;6.82;5.00;;;22.10;99.90;;;;;;5032396;28;20041;-65
2023/06/19 07:28:04;;;;;;;6.07;5.03;;;22.10;99.90;;;;;;5031427;28;20090;-65
2023/06/19 07:30:30;;;;;;;5.50;5.00;;;22.00;99.90;;;;;;5033083;28;20129;-65
2023/06/19 07:32:56;;;;;;;6.40;5.22;;;22.00;99.90;;;;;;5033098;28;20041;-65
2023/06/19 07:35:21;;;;;;;7.53;5.35;;;22.00;99.90;;;;;;5031813;28;20450;-65
2023/06/19 07:37:47;;;;;;;8.35;5.18;;;22.00;99.90;;;;;;5031436;28;20124;-65
2023/06/19 07:40:13;;;;;;;6.45;5.60;;;21.90;99.90;;;;;;5032501;28;20511;-65
2023/06/19 07:42:38;;;;;;;6.63;5.13;;;22.10;99.90;;;;;;5032650;28;20044;-65
2023/06/19 07:45:04;;;;;;;7.45;5.68;;;22.10;99.90;;;;;;5032437;28;20042;-65
2023/06/19 07:47:30;;;;;;;7.97;5.50;;;22.00;99.90;;;;;;5032506;28;20037;-65
2023/06/19 07:49:56;;;;;;;8.13;5.97;;;22.10;99.90;;;;;;5032738;28;20403;-65
2023/06/19 07:52:21;;;;;;;6.68;5.90;;;22.10;99.90;;;;;;5032597;28;20033;-65
2023/06/19 07:54:57;;;;;;;8.25;5.93;;;22.10;99.90;;;;;;5032232;28;20042;-65
2023/06/19 07:57:24;;;;;;;6.13;5.53;;;22.10;99.90;;;;;;5032302;28;20081;-66
2023/06/19 07:59:50;;;;;;;11.13;6.00;;;22.00;99.90;;;;;;5031465;28;20053;-65
2023/06/19 08:02:17;;;;;;;6.70;5.45;;;21.90;99.90;;;;;;5032315;28;20049;-65
2023/06/19 08:04:43;;;;;;;6.80;5.38;;;21.90;99.90;;;;;;5032078;28;20087;-65
2023/06/19 08:07:08;;;;;;;8.10;5.55;;;21.90;99.90;;;;;;5032215;28;20041;-65
2023/06/19 08:09:34;;;;;;;6.43;5.78;;;22.00;99.90;;;;;;5029850;28;20038;-65
2023/06/19 08:12:01;;;;;;;7.15;6.45;;;22.00;99.90;;;;;;5032049;28;20041;-66
2023/06/19 08:14:27;;;;;;;7.13;6.43;;;22.00;99.90;;;;;;5030519;28;20521;-65
2023/06/19 08:16:53;;;;;;;9.05;7.85;;;22.10;99.90;;;;;;5032287;28;20120;-65
2023/06/19 08:19:18;;;;;;;9.57;8.30;;;22.10;99.90;;;;;;5032080;28;20045;-66
2023/06/19 08:21:44;;;;;;;9.50;8.60;;;22.20;99.90;;;;;;5032140;28;20037;-65
2023/06/19 08:24:09;;;;;;;11.32;9.00;;;22.20;99.90;;;;;;5030475;28;20510;-65
2023/06/19 08:26:35;;;;;;;9.05;8.15;;;22.30;99.90;;;;;;5031782;28;20034;-65
2023/06/19 08:29:00;;;;;;;8.48;7.22;;;22.30;99.90;;;;;;5031832;28;20042;-65
2023/06/19 08:31:28;;;;;;;7.68;6.85;;;22.30;99.90;;;;;;5030728;28;20041;-65
2023/06/19 08:33:57;;;;;;;7.80;6.72;;;22.30;99.90;;;;;;5013969;28;20041;-65
2023/06/19 08:36:22;;;;;;;8.23;7.43;;;22.30;99.90;;;;;;5029829;28;20069;-65
2023/06/19 08:38:49;;;;;;;7.85;6.78;;;22.30;99.90;;;;;;5031838;28;20076;-65
2023/06/19 08:41:21;;;;;;;8.45;6.13;;;22.30;99.90;;;;;;5030981;28;20049;-65
2023/06/19 08:43:47;;;;;;;9.50;7.38;;;22.30;99.90;;;;;;5030301;28;20072;-65
2023/06/19 08:46:15;;;;;;;10.90;6.68;;;22.30;99.90;;;;;;5031470;28;20458;-65
2023/06/19 08:48:41;;;;;;;8.80;6.63;;;22.40;99.90;;;;;;5031799;28;20067;-65
2023/06/19 08:51:07;;;;;;;9.43;6.45;;;22.40;99.90;;;;;;5030065;28;20048;-65
2023/06/19 08:53:35;;;;;;;7.38;6.68;;;22.40;99.90;;;;;;5030174;28;20080;-65
2023/06/19 08:56:02;;;;;;;8.20;6.38;;;22.30;99.90;;;;;;5031524;28;20041;-65
2023/06/19 08:58:28;;;;;;;8.20;6.65;;;22.30;99.90;;;;;;5030175;28;20407;-65
2023/06/19 09:00:53;;;;;;;8.57;6.57;;;22.30;99.90;;;;;;5029920;28;20047;-65
2023/06/19 09:03:22;;;;;;;9.18;7.10;;;22.30;99.90;;;;;;5030171;28;20043;-65
2023/06/19 09:05:52;;;;;;;8.93;7.25;;;22.30;99.90;;;;;;5029987;28;20119;-65
2023/06/19 09:08:19;;;;;;;9.15;8.15;;;22.40;99.90;;;;;;5031309;28;20041;-65
2023/06/19 09:11:04;;;;;;;9.95;8.93;;;22.60;99.90;;;;;;5031808;28;20037;-65
2023/06/19 09:13:31;;;;;;;8.85;7.90;;;22.80;99.90;;;;;;5031499;28;20056;-65
2023/06/19 09:16:07;;;;;;;8.95;7.75;;;23.00;99.90;;;;;;5031549;28;20398;-65
2023/06/19 09:18:51;;;;;;;8.88;7.40;;;23.10;99.90;;;;;;5029963;28;20043;-65
2023/06/19 09:21:18;;;;;;;8.43;7.60;;;23.20;99.90;;;;;;5031654;28;20037;-65
2023/06/19 09:23:44;;;;;;;8.40;7.60;;;23.30;99.90;;;;;;5031227;28;20047;-65
2023/06/19 09:26:10;;;;;;;10.75;8.18;;;23.40;99.90;;;;;;5031260;28;20395;-65
2023/06/19 09:28:42;;;;;;;9.93;8.30;;;23.60;99.40;;;;;;5031189;28;20041;-65
2023/06/19 09:31:08;;;;;;;8.23;7.43;;;23.80;98.70;;;;;;5031241;28;20044;-65
2023/06/19 09:33:34;;;;;;;11.63;8.27;;;23.90;98.30;;;;;;5031238;28;20404;-65
2023/06/19 09:36:02;;;;;;;9.45;8.50;;;24.10;97.80;;;;;;5031189;28;20408;-65
2023/06/19 09:38:29;;;;;;;8.90;8.00;;;24.30;97.30;;;;;;5031432;28;20148;-65
2023/06/19 09:40:58;;;;;;;9.18;8.38;;;24.50;97.00;;;;;;5031362;28;20053;-65
2023/06/19 09:43:29;;;;;;;8.80;7.90;;;24.60;96.40;;;;;;5031080;28;20116;-65
2023/06/19 09:45:56;;;;;;;9.95;8.52;;;24.60;96.30;;;;;;5030132;28;20560;-65
2023/06/19 09:48:32;;;;;;;9.20;8.25;;;24.70;96.20;;;;;;5032615;28;20407;-65
2023/06/19 09:51:17;;;;;;;10.15;9.15;;;24.80;95.90;;;;;;5033872;28;20067;-65
2023/06/19 09:53:48;;;;;;;10.27;9.18;;;24.80;95.00;;;;;;5034686;28;20434;-65
2023/06/19 09:56:15;;;;;;;11.73;9.45;;;24.60;95.10;;;;;;5034778;28;20039;-65
2023/06/19 09:58:43;;;;;;;10.55;9.45;;;24.40;95.10;;;;;;5034641;28;20520;-65
2023/06/19 10:01:09;;;;;;;9.50;8.50;;;24.40;95.00;;;;;;5034785;28;20056;-64
2023/06/19 10:03:36;;;;;;;9.80;8.15;;;24.40;95.20;;;;;;5033105;28;20399;-65
2023/06/19 10:06:04;;;;;;;9.85;7.88;;;24.50;95.10;;;;;;5034398;28;20041;-65
2023/06/19 10:08:31;;;;;;;10.15;7.13;;;24.80;95.10;;;;;;5034138;28;20049;-65
2023/06/19 10:10:57;;;;;;;7.75;6.97;;;24.90;94.80;;;;;;5034613;28;20044;-65
2023/06/19 10:13:33;;;;;;;10.20;6.45;;;24.90;94.50;;;;;;5034413;28;20045;-65
2023/06/19 10:15:59;;;;;;;6.40;5.68;;;25.10;94.30;;;;;;5033051;28;20122;-65
2023/06/19 10:18:26;;;;;;;7.22;5.72;;;25.00;94.00;;;;;;5034281;28;20096;-65
2023/06/19 10:20:53;;;;;;;7.18;5.68;;;24.80;93.50;;;;;;5034407;28;20068;-65
2023/06/19 10:23:24;;;;;;;7.95;5.50;;;24.60;93.30;;;;;;5034217;28;20037;-65
2023/06/19 10:26:00;;;;;;;6.18;4.90;;;24.70;93.20;;;;;;5034274;28;20091;-65
2023/06/19 10:28:28;;;;;;;9.40;5.15;;;24.60;93.20;;;;;;5034058;28;20133;-64
2023/06/19 10:31:08;;;;;;;6.65;5.70;;;24.70;93.70;;;;;;5032782;28;20083;-65
2023/06/19 10:33:42;;;;;;;7.40;6.43;;;24.80;93.00;;;;;;5033287;28;20034;-65
2023/06/19 10:36:15;;;;;;;9.13;5.60;;;24.80;92.60;;;;;;5033839;28;20033;-65
2023/06/19 10:38:47;;;;;;;9.15;6.50;;;24.90;92.60;;;;;;5034031;28;20510;-65
2023/06/19 10:41:20;;;;;;;10.55;7.40;;;24.90;93.00;;;;;;5033885;28;20046;-65
2023/06/19 10:44:08;;;;;;;14.80;7.82;;;25.00;93.10;;;;;;5033689;28;20041;-65
2023/06/19 10:46:36;;;;;;;10.18;8.02;;;25.10;93.20;;;;;;5034033;28;20052;-65
2023/06/19 10:49:04;;;;;;;10.27;7.70;;;25.30;93.10;;;;;;5033376;28;20052;-65
2023/06/19 10:51:42;;;;;;;9.55;6.90;;;25.40;92.80;;;;;;5032209;28;20120;-64
2023/06/19 10:54:08;;;;;;;12.15;7.65;;;25.60;92.60;;;;;;5032371;28;20040;-65
2023/06/19 10:56:34;;;;;;;14.30;8.15;;;25.60;92.20;;;;;;5033000;28;20037;-65
2023/06/19 10:59:01;;;;;;;9.90;7.50;;;25.40;91.70;;;;;;5033105;28;20040;-64
2023/06/19 11:01:33;;;;;;;7.97;6.03;;;25.20;91.70;;;;;;5033205;28;20522;-65
2023/06/19 11:03:58;;;;;;;7.97;5.43;;;25.10;91.50;;;;;;5033207;28;20033;-65
2023/06/19 11:06:24;;;;;;;9.05;6.00;;;25.20;91.20;;;;;;5032900;28;20376;-65
2023/06/19 11:08:53;;;;;;;6.10;5.50;;;25.20;90.50;;;;;;5033130;28;20072;-65
2023/06/19 11:11:20;;;;;;;8.07;5.63;;;25.30;90.70;;;;;;5033194;28;20069;-65
2023/06/19 11:13:45;;;;;;;9.57;6.65;;;25.30;90.70;;;;;;5032784;28;20456;-65
2023/06/19 11:16:14;;;;;;;7.57;6.57;;;25.60;90.60;;;;;;5032740;28;20076;-65
2023/06/19 11:18:39;;;;;;;8.35;6.03;;;25.40;90.10;;;;;;5033288;28;20045;-65
2023/06/19 11:21:05;;;;;;;9.32;6.22;;;25.30;90.10;;;;;;5032181;28;20041;-65
2023/06/19 11:23:30;;;;;;;8.88;5.88;;;25.10;89.80;;;;;;5032582;28;20048;-66
2023/06/19 11:26:04;;;;;;;8.43;6.57;;;25.30;90.10;;;;;;5033102;28;20125;-65
2023/06/19 11:28:29;;;;;;;7.18;5.65;;;25.30;88.70;;;;;;5032981;28;20084;-65
2023/06/19 11:31:01;;;;;;;9.18;6.15;;;25.50;89.50;;;;;;5033154;28;20061;-65
2023/06/19 11:33:26;;;;;;;6.38;5.45;;;25.50;88.20;;;;;;5032700;28;20045;-65
2023/06/19 11:35:53;;;;;;;7.57;6.13;;;25.70;88.50;;;;;;5032702;28;20091;-66
2023/06/19 11:38:24;;;;;;;9.73;6.88;;;25.90;87.70;;;;;;5032999;28;20053;-65
2023/06/19 11:40:50;;;;;;;7.88;5.90;;;26.00;86.30;;;;;;5032998;28;20098;-66
2023/06/19 11:43:31;;;;;;;8.88;6.50;;;26.10;86.00;;;;;;5032577;28;20570;-66
2023/06/19 11:46:04;;;;;;;7.65;6.32;;;26.00;85.20;;;;;;5032656;28;20037;-66
2023/06/19 11:48:30;;;;;;;8.25;6.70;;;26.30;85.80;;;;;;5031036;28;20045;-65
2023/06/19 11:50:56;;;;;;;9.40;7.07;;;26.30;85.30;;;;;;5032873;28;20033;-65
2023/06/19 11:53:23;;;;;;;8.18;6.65;;;26.30;85.00;;;;;;5031013;28;20079;-65
2023/06/19 11:55:50;;;;;;;10.63;7.38;;;26.00;84.60;;;;;;5014569;28;20033;-66
2023/06/19 11:58:16;;;;;;;10.90;7.03;;;25.70;85.10;;;;;;5032561;28;20042;-65
2023/06/19 12:00:42;;;;;;;11.70;8.05;;;25.60;86.00;;;;;;5032510;28;20431;-66
2023/06/19 12:03:09;;;;;;;12.10;7.60;;;25.70;86.40;;;;;;5032285;28;20037;-65
2023/06/19 12:05:35;;;;;;;9.95;6.60;;;25.70;86.00;;;;;;5031736;28;20034;-66
2023/06/19 12:08:02;;;;;;;8.73;6.90;;;25.80;85.80;;;;;;5032392;28;20444;-66
2023/06/19 12:10:28;;;;;;;8.85;6.50;;;25.70;85.60;;;;;;5030489;28;20049;-66
2023/06/19 12:12:54;;;;;;;8.82;6.63;;;25.70;86.30;;;;;;5030982;28;20048;-66
2023/06/19 12:15:19;;;;;;;11.13;7.60;;;25.80;86.40;;;;;;5032292;28;20038;-66
2023/06/19 12:17:46;;;;;;;10.75;7.40;;;25.80;86.00;;;;;;5031039;28;20037;-66
2023/06/19 12:20:13;;;;;;;10.18;7.55;;;25.90;85.60;;;;;;5031581;28;20364;-66
2023/06/19 12:22:40;;;;;;;12.63;8.02;;;25.90;85.40;;;;;;5031694;28;20049;-66
2023/06/19 12:25:06;;;;;;;9.15;7.50;;;25.80;84.70;;;;;;5031646;28;20487;-65
2023/06/19 12:27:31;;;;;;;9.23;6.82;;;25.80;85.30;;;;;;5031927;28;20045;-66
2023/06/19 12:29:57;;;;;;;12.77;7.93;;;25.90;85.30;;;;;;5031619;28;20046;-65
2023/06/19 12:32:22;;;;;;;8.93;7.30;;;25.90;85.20;;;;;;5031456;28;20042;-66
2023/06/19 12:34:53;;;;;;;8.93;7.72;;;25.90;84.90;;;;;;5030377;28;20034;-65
2023/06/19 12:37:20;;;;;;;10.48;8.10;;;25.90;85.10;;;;;;5031544;28;20044;-66
2023/06/19 12:39:46;;;;;;;10.95;7.85;;;25.90;85.20;;;;;;5031899;28;20534;-65
2023/06/19 12:42:12;;;;;;;14.95;8.35;;;25.80;85.80;;;;;;5031473;28;20033;-66
2023/06/19 12:44:40;;;;;;;12.38;9.13;;;25.70;85.60;;;;;;5029769;28;20061;-66